sensor_id;sensor_type;location;lat;lon;timestamp;P1;durP1;ratioP1;P2;durP2;ratioP2
59970;SDS011;45825;45.434;9.116;2022-10-16T00:01:33;87.65;;;57.33;;
59970;SDS011;45825;45.434;9.116;2022-10-16T00:03:59;85.45;;;57.53;;
59970;SDS011;45825;45.434;9.116;2022-10-16T00:06:25;86.57;;;56.47;;
59970;SDS011;45825;45.434;9.116;2022-10-16T00:08:52;85.63;;;57.53;;
59970;SDS011;45825;45.434;9.116;2022-10-16T00:11:19;87.68;;;57.25;;
59970;SDS011;45825;45.434;9.116;2022-10-16T00:13:47;89.72;;;56.42;;
59970;SDS011;45825;45.434;9.116;2022-10-16T00:16:14;86.80;;;56.40;;
59970;SDS011;45825;45.434;9.116;2022-10-16T00:18:40;88.82;;;58.05;;
59970;SDS011;45825;45.434;9.116;2022-10-16T00:21:07;86.00;;;57.10;;
59970;SDS011;45825;45.434;9.116;2022-10-16T00:23:38;89.35;;;57.50;;
59970;SDS011;45825;45.434;9.116;2022-10-16T00:26:05;87.18;;;56.33;;
59970;SDS011;45825;45.434;9.116;2022-10-16T00:28:33;83.95;;;54.95;;
59970;SDS011;45825;45.434;9.116;2022-10-16T00:31:02;84.72;;;56.17;;
59970;SDS011;45825;45.434;9.116;2022-10-16T00:33:29;88.07;;;57.88;;
59970;SDS011;45825;45.434;9.116;2022-10-16T00:35:57;89.60;;;57.65;;
59970;SDS011;45825;45.434;9.116;2022-10-16T00:38:23;82.72;;;55.55;;
59970;SDS011;45825;45.434;9.116;2022-10-16T00:40:48;86.28;;;55.50;;
59970;SDS011;45825;45.434;9.116;2022-10-16T00:43:31;84.25;;;54.33;;
59970;SDS011;45825;45.434;9.116;2022-10-16T00:46:00;87.82;;;54.88;;
59970;SDS011;45825;45.434;9.116;2022-10-16T00:48:27;83.88;;;54.47;;
59970;SDS011;45825;45.434;9.116;2022-10-16T00:50:52;88.40;;;56.05;;
59970;SDS011;45825;45.434;9.116;2022-10-16T00:53:18;82.15;;;54.60;;
59970;SDS011;45825;45.434;9.116;2022-10-16T00:55:44;84.38;;;55.67;;
59970;SDS011;45825;45.434;9.116;2022-10-16T00:58:10;82.60;;;54.47;;
59970;SDS011;45825;45.434;9.116;2022-10-16T01:00:36;81.43;;;54.00;;
59970;SDS011;45825;45.434;9.116;2022-10-16T01:03:02;82.35;;;53.85;;
59970;SDS011;45825;45.434;9.116;2022-10-16T01:05:42;79.68;;;52.75;;
59970;SDS011;45825;45.434;9.116;2022-10-16T01:08:18;80.07;;;52.80;;
59970;SDS011;45825;45.434;9.116;2022-10-16T01:13:33;79.55;;;51.53;;
59970;SDS011;45825;45.434;9.116;2022-10-16T01:21:06;76.40;;;49.50;;
59970;SDS011;45825;45.434;9.116;2022-10-16T01:31:50;70.45;;;47.83;;
59970;SDS011;45825;45.434;9.116;2022-10-16T01:34:55;74.50;;;48.90;;
59970;SDS011;45825;45.434;9.116;2022-10-16T01:40:38;73.20;;;48.55;;
59970;SDS011;45825;45.434;9.116;2022-10-16T01:43:10;72.30;;;48.88;;
59970;SDS011;45825;45.434;9.116;2022-10-16T01:45:39;71.63;;;47.63;;
59970;SDS011;45825;45.434;9.116;2022-10-16T01:48:07;65.28;;;46.65;;
59970;SDS011;45825;45.434;9.116;2022-10-16T01:50:35;70.95;;;46.75;;
59970;SDS011;45825;45.434;9.116;2022-10-16T01:53:04;68.68;;;46.58;;
59970;SDS011;45825;45.434;9.116;2022-10-16T01:55:34;66.50;;;46.35;;
59970;SDS011;45825;45.434;9.116;2022-10-16T01:58:04;72.23;;;47.37;;
59970;SDS011;45825;45.434;9.116;2022-10-16T02:00:32;71.03;;;48.30;;
59970;SDS011;45825;45.434;9.116;2022-10-16T02:02:57;67.10;;;47.08;;
59970;SDS011;45825;45.434;9.116;2022-10-16T02:05:28;70.35;;;47.70;;
59970;SDS011;45825;45.434;9.116;2022-10-16T02:08:06;67.57;;;47.00;;
59970;SDS011;45825;45.434;9.116;2022-10-16T02:10:32;67.40;;;46.75;;
59970;SDS011;45825;45.434;9.116;2022-10-16T02:12:59;68.22;;;47.03;;
59970;SDS011;45825;45.434;9.116;2022-10-16T02:15:30;69.45;;;47.63;;
59970;SDS011;45825;45.434;9.116;2022-10-16T02:17:55;75.00;;;47.03;;
59970;SDS011;45825;45.434;9.116;2022-10-16T02:20:22;74.25;;;49.03;;
59970;SDS011;45825;45.434;9.116;2022-10-16T02:25:25;73.65;;;47.30;;
59970;SDS011;45825;45.434;9.116;2022-10-16T02:30:50;73.35;;;48.72;;
59970;SDS011;45825;45.434;9.116;2022-10-16T02:33:21;70.82;;;47.75;;
59970;SDS011;45825;45.434;9.116;2022-10-16T02:35:48;68.35;;;46.85;;
59970;SDS011;45825;45.434;9.116;2022-10-16T02:38:16;69.40;;;47.13;;
59970;SDS011;45825;45.434;9.116;2022-10-16T02:40:42;70.05;;;46.97;;
59970;SDS011;45825;45.434;9.116;2022-10-16T02:43:08;66.95;;;46.53;;
59970;SDS011;45825;45.434;9.116;2022-10-16T02:45:34;67.63;;;47.22;;
59970;SDS011;45825;45.434;9.116;2022-10-16T02:48:00;64.93;;;45.38;;
59970;SDS011;45825;45.434;9.116;2022-10-16T02:50:25;72.45;;;47.97;;
59970;SDS011;45825;45.434;9.116;2022-10-16T02:52:50;71.15;;;46.67;;
59970;SDS011;45825;45.434;9.116;2022-10-16T02:55:16;70.55;;;46.67;;
59970;SDS011;45825;45.434;9.116;2022-10-16T02:57:42;72.72;;;48.63;;
59970;SDS011;45825;45.434;9.116;2022-10-16T03:00:09;68.05;;;46.60;;
59970;SDS011;45825;45.434;9.116;2022-10-16T03:02:36;71.90;;;47.28;;
59970;SDS011;45825;45.434;9.116;2022-10-16T03:05:01;71.80;;;48.30;;
59970;SDS011;45825;45.434;9.116;2022-10-16T03:07:27;69.85;;;48.20;;
59970;SDS011;45825;45.434;9.116;2022-10-16T03:09:52;70.88;;;47.40;;
59970;SDS011;45825;45.434;9.116;2022-10-16T03:12:17;66.38;;;46.00;;
59970;SDS011;45825;45.434;9.116;2022-10-16T03:14:43;67.15;;;46.28;;
59970;SDS011;45825;45.434;9.116;2022-10-16T03:17:08;68.85;;;47.05;;
59970;SDS011;45825;45.434;9.116;2022-10-16T03:19:33;69.07;;;45.85;;
59970;SDS011;45825;45.434;9.116;2022-10-16T03:21:59;66.32;;;46.42;;
59970;SDS011;45825;45.434;9.116;2022-10-16T03:24:25;65.13;;;46.22;;
59970;SDS011;45825;45.434;9.116;2022-10-16T03:26:50;66.80;;;45.88;;
59970;SDS011;45825;45.434;9.116;2022-10-16T03:29:15;66.65;;;45.63;;
59970;SDS011;45825;45.434;9.116;2022-10-16T03:31:41;68.30;;;44.92;;
59970;SDS011;45825;45.434;9.116;2022-10-16T03:34:06;65.38;;;45.97;;
59970;SDS011;45825;45.434;9.116;2022-10-16T03:36:31;65.53;;;46.00;;
59970;SDS011;45825;45.434;9.116;2022-10-16T03:38:57;63.53;;;44.65;;
59970;SDS011;45825;45.434;9.116;2022-10-16T03:41:22;67.13;;;47.13;;
59970;SDS011;45825;45.434;9.116;2022-10-16T03:43:47;68.85;;;46.63;;
59970;SDS011;45825;45.434;9.116;2022-10-16T03:46:13;62.72;;;44.70;;
59970;SDS011;45825;45.434;9.116;2022-10-16T03:48:38;63.97;;;45.22;;
59970;SDS011;45825;45.434;9.116;2022-10-16T03:51:04;66.38;;;44.42;;
59970;SDS011;45825;45.434;9.116;2022-10-16T03:53:30;60.88;;;45.28;;
59970;SDS011;45825;45.434;9.116;2022-10-16T03:55:55;66.50;;;45.72;;
59970;SDS011;45825;45.434;9.116;2022-10-16T03:58:21;63.30;;;44.67;;
59970;SDS011;45825;45.434;9.116;2022-10-16T04:00:46;61.83;;;45.33;;
59970;SDS011;45825;45.434;9.116;2022-10-16T04:03:14;63.38;;;45.35;;
59970;SDS011;45825;45.434;9.116;2022-10-16T04:05:39;63.60;;;45.17;;
59970;SDS011;45825;45.434;9.116;2022-10-16T04:08:05;67.22;;;46.05;;
59970;SDS011;45825;45.434;9.116;2022-10-16T04:10:31;64.22;;;45.20;;
59970;SDS011;45825;45.434;9.116;2022-10-16T04:12:56;63.35;;;45.15;;
59970;SDS011;45825;45.434;9.116;2022-10-16T04:15:22;62.30;;;45.30;;
59970;SDS011;45825;45.434;9.116;2022-10-16T04:17:48;62.95;;;44.92;;
59970;SDS011;45825;45.434;9.116;2022-10-16T04:20:14;64.68;;;46.88;;
59970;SDS011;45825;45.434;9.116;2022-10-16T04:22:39;62.88;;;45.97;;
59970;SDS011;45825;45.434;9.116;2022-10-16T04:25:04;63.50;;;46.85;;
59970;SDS011;45825;45.434;9.116;2022-10-16T04:27:30;61.83;;;44.80;;
59970;SDS011;45825;45.434;9.116;2022-10-16T04:29:56;63.13;;;43.60;;
59970;SDS011;45825;45.434;9.116;2022-10-16T04:32:22;69.43;;;46.13;;
59970;SDS011;45825;45.434;9.116;2022-10-16T04:34:47;67.93;;;46.55;;
59970;SDS011;45825;45.434;9.116;2022-10-16T04:37:13;64.10;;;44.95;;
59970;SDS011;45825;45.434;9.116;2022-10-16T04:39:38;62.67;;;46.08;;
59970;SDS011;45825;45.434;9.116;2022-10-16T04:42:03;63.35;;;44.38;;
59970;SDS011;45825;45.434;9.116;2022-10-16T04:44:29;60.08;;;45.92;;
59970;SDS011;45825;45.434;9.116;2022-10-16T04:46:54;62.13;;;44.47;;
59970;SDS011;45825;45.434;9.116;2022-10-16T04:49:19;61.00;;;43.95;;
59970;SDS011;45825;45.434;9.116;2022-10-16T04:51:45;61.33;;;43.88;;
59970;SDS011;45825;45.434;9.116;2022-10-16T04:54:10;59.95;;;43.78;;
59970;SDS011;45825;45.434;9.116;2022-10-16T04:56:35;61.45;;;44.17;;
59970;SDS011;45825;45.434;9.116;2022-10-16T04:59:08;61.75;;;43.47;;
59970;SDS011;45825;45.434;9.116;2022-10-16T05:01:34;55.60;;;41.97;;
59970;SDS011;45825;45.434;9.116;2022-10-16T05:03:59;57.00;;;42.55;;
59970;SDS011;45825;45.434;9.116;2022-10-16T05:06:24;57.60;;;43.15;;
59970;SDS011;45825;45.434;9.116;2022-10-16T05:08:50;58.20;;;41.65;;
59970;SDS011;45825;45.434;9.116;2022-10-16T05:11:15;59.38;;;42.17;;
59970;SDS011;45825;45.434;9.116;2022-10-16T05:13:41;58.50;;;42.90;;
59970;SDS011;45825;45.434;9.116;2022-10-16T05:16:06;58.10;;;41.47;;
59970;SDS011;45825;45.434;9.116;2022-10-16T05:18:31;56.13;;;41.10;;
59970;SDS011;45825;45.434;9.116;2022-10-16T05:20:57;56.63;;;39.45;;
59970;SDS011;45825;45.434;9.116;2022-10-16T05:23:22;55.25;;;40.75;;
59970;SDS011;45825;45.434;9.116;2022-10-16T05:25:54;55.22;;;39.30;;
59970;SDS011;45825;45.434;9.116;2022-10-16T05:28:23;54.08;;;37.53;;
59970;SDS011;45825;45.434;9.116;2022-10-16T05:30:49;51.38;;;38.83;;
59970;SDS011;45825;45.434;9.116;2022-10-16T05:33:14;53.95;;;38.40;;
59970;SDS011;45825;45.434;9.116;2022-10-16T05:35:40;53.17;;;39.53;;
59970;SDS011;45825;45.434;9.116;2022-10-16T05:38:05;54.28;;;38.35;;
59970;SDS011;45825;45.434;9.116;2022-10-16T05:40:30;49.67;;;38.08;;
59970;SDS011;45825;45.434;9.116;2022-10-16T05:42:56;56.92;;;37.30;;
59970;SDS011;45825;45.434;9.116;2022-10-16T05:45:21;50.50;;;38.53;;
59970;SDS011;45825;45.434;9.116;2022-10-16T05:47:46;46.65;;;35.08;;
59970;SDS011;45825;45.434;9.116;2022-10-16T05:50:12;48.95;;;38.28;;
59970;SDS011;45825;45.434;9.116;2022-10-16T05:52:37;50.38;;;36.72;;
59970;SDS011;45825;45.434;9.116;2022-10-16T05:55:03;47.15;;;35.85;;
59970;SDS011;45825;45.434;9.116;2022-10-16T05:57:28;48.83;;;35.88;;
59970;SDS011;45825;45.434;9.116;2022-10-16T05:59:54;44.45;;;34.45;;
59970;SDS011;45825;45.434;9.116;2022-10-16T06:02:20;46.28;;;36.30;;
59970;SDS011;45825;45.434;9.116;2022-10-16T06:04:45;45.72;;;35.72;;
59970;SDS011;45825;45.434;9.116;2022-10-16T06:07:10;45.10;;;35.88;;
59970;SDS011;45825;45.434;9.116;2022-10-16T06:09:36;47.60;;;37.08;;
59970;SDS011;45825;45.434;9.116;2022-10-16T06:12:01;47.55;;;35.72;;
59970;SDS011;45825;45.434;9.116;2022-10-16T06:14:26;46.08;;;35.08;;
59970;SDS011;45825;45.434;9.116;2022-10-16T06:16:52;48.78;;;36.20;;
59970;SDS011;45825;45.434;9.116;2022-10-16T06:19:17;44.22;;;35.47;;
59970;SDS011;45825;45.434;9.116;2022-10-16T06:21:43;46.72;;;34.65;;
59970;SDS011;45825;45.434;9.116;2022-10-16T06:24:09;43.92;;;35.00;;
59970;SDS011;45825;45.434;9.116;2022-10-16T06:26:34;46.33;;;34.90;;
59970;SDS011;45825;45.434;9.116;2022-10-16T06:29:00;46.03;;;34.17;;
59970;SDS011;45825;45.434;9.116;2022-10-16T06:31:26;49.45;;;36.00;;
59970;SDS011;45825;45.434;9.116;2022-10-16T06:33:54;46.58;;;36.67;;
59970;SDS011;45825;45.434;9.116;2022-10-16T06:36:21;44.15;;;33.88;;
59970;SDS011;45825;45.434;9.116;2022-10-16T06:38:46;44.15;;;34.85;;
59970;SDS011;45825;45.434;9.116;2022-10-16T06:41:15;43.20;;;34.20;;
59970;SDS011;45825;45.434;9.116;2022-10-16T06:43:43;45.67;;;35.20;;
59970;SDS011;45825;45.434;9.116;2022-10-16T06:46:12;43.50;;;34.03;;
59970;SDS011;45825;45.434;9.116;2022-10-16T06:48:39;44.20;;;33.35;;
59970;SDS011;45825;45.434;9.116;2022-10-16T06:51:14;45.10;;;33.65;;
59970;SDS011;45825;45.434;9.116;2022-10-16T06:53:48;44.63;;;33.03;;
59970;SDS011;45825;45.434;9.116;2022-10-16T06:56:16;44.05;;;32.88;;
59970;SDS011;45825;45.434;9.116;2022-10-16T06:58:44;41.25;;;33.05;;
59970;SDS011;45825;45.434;9.116;2022-10-16T07:01:10;42.25;;;32.97;;
59970;SDS011;45825;45.434;9.116;2022-10-16T07:03:37;40.85;;;32.03;;
59970;SDS011;45825;45.434;9.116;2022-10-16T07:06:03;42.92;;;31.98;;
59970;SDS011;45825;45.434;9.116;2022-10-16T07:08:31;42.92;;;33.45;;
59970;SDS011;45825;45.434;9.116;2022-10-16T07:11:01;45.35;;;34.45;;
59970;SDS011;45825;45.434;9.116;2022-10-16T07:13:28;45.20;;;33.60;;
59970;SDS011;45825;45.434;9.116;2022-10-16T07:15:53;43.30;;;33.72;;
59970;SDS011;45825;45.434;9.116;2022-10-16T07:18:19;43.85;;;32.25;;
59970;SDS011;45825;45.434;9.116;2022-10-16T07:20:44;44.00;;;32.75;;
59970;SDS011;45825;45.434;9.116;2022-10-16T07:23:10;40.60;;;31.92;;
59970;SDS011;45825;45.434;9.116;2022-10-16T07:25:35;39.92;;;31.92;;
59970;SDS011;45825;45.434;9.116;2022-10-16T07:28:00;43.38;;;31.55;;
59970;SDS011;45825;45.434;9.116;2022-10-16T07:30:25;41.58;;;32.30;;
59970;SDS011;45825;45.434;9.116;2022-10-16T07:32:51;43.80;;;32.55;;
59970;SDS011;45825;45.434;9.116;2022-10-16T07:35:16;44.70;;;31.73;;
59970;SDS011;45825;45.434;9.116;2022-10-16T07:37:44;43.22;;;32.42;;
59970;SDS011;45825;45.434;9.116;2022-10-16T07:40:10;44.05;;;33.38;;
59970;SDS011;45825;45.434;9.116;2022-10-16T07:42:36;38.65;;;31.42;;
59970;SDS011;45825;45.434;9.116;2022-10-16T07:45:01;43.55;;;32.53;;
59970;SDS011;45825;45.434;9.116;2022-10-16T07:47:26;41.50;;;31.52;;
59970;SDS011;45825;45.434;9.116;2022-10-16T07:49:52;41.20;;;31.60;;
59970;SDS011;45825;45.434;9.116;2022-10-16T07:52:17;43.15;;;31.17;;
59970;SDS011;45825;45.434;9.116;2022-10-16T07:54:42;42.50;;;32.03;;
59970;SDS011;45825;45.434;9.116;2022-10-16T07:57:07;45.83;;;31.27;;
59970;SDS011;45825;45.434;9.116;2022-10-16T07:59:33;39.65;;;32.35;;
59970;SDS011;45825;45.434;9.116;2022-10-16T08:01:58;41.78;;;32.63;;
59970;SDS011;45825;45.434;9.116;2022-10-16T08:04:23;42.60;;;32.10;;
59970;SDS011;45825;45.434;9.116;2022-10-16T08:06:49;40.60;;;31.70;;
59970;SDS011;45825;45.434;9.116;2022-10-16T08:09:14;45.72;;;33.22;;
59970;SDS011;45825;45.434;9.116;2022-10-16T08:11:40;47.53;;;32.95;;
59970;SDS011;45825;45.434;9.116;2022-10-16T08:14:05;43.05;;;32.78;;
59970;SDS011;45825;45.434;9.116;2022-10-16T08:16:30;50.25;;;36.85;;
59970;SDS011;45825;45.434;9.116;2022-10-16T08:18:56;55.72;;;40.30;;
59970;SDS011;45825;45.434;9.116;2022-10-16T08:21:22;57.45;;;41.28;;
59970;SDS011;45825;45.434;9.116;2022-10-16T08:23:48;61.50;;;40.85;;
59970;SDS011;45825;45.434;9.116;2022-10-16T08:26:14;64.00;;;42.15;;
59970;SDS011;45825;45.434;9.116;2022-10-16T08:28:40;63.10;;;41.15;;
59970;SDS011;45825;45.434;9.116;2022-10-16T08:31:06;58.72;;;41.72;;
59970;SDS011;45825;45.434;9.116;2022-10-16T08:33:36;56.70;;;40.92;;
59970;SDS011;45825;45.434;9.116;2022-10-16T08:36:02;54.40;;;39.30;;
59970;SDS011;45825;45.434;9.116;2022-10-16T08:38:28;50.78;;;38.58;;
59970;SDS011;45825;45.434;9.116;2022-10-16T08:40:54;46.90;;;34.13;;
59970;SDS011;45825;45.434;9.116;2022-10-16T08:46:39;51.13;;;35.90;;
59970;SDS011;45825;45.434;9.116;2022-10-16T08:49:12;50.72;;;35.58;;
59970;SDS011;45825;45.434;9.116;2022-10-16T08:51:38;49.05;;;34.75;;
59970;SDS011;45825;45.434;9.116;2022-10-16T08:54:06;50.05;;;36.67;;
59970;SDS011;45825;45.434;9.116;2022-10-16T08:56:46;51.28;;;36.38;;
59970;SDS011;45825;45.434;9.116;2022-10-16T08:59:11;48.70;;;33.88;;
59970;SDS011;45825;45.434;9.116;2022-10-16T09:01:45;50.67;;;33.70;;
59970;SDS011;45825;45.434;9.116;2022-10-16T09:15:16;47.13;;;33.92;;
59970;SDS011;45825;45.434;9.116;2022-10-16T09:23:18;50.92;;;35.15;;
59970;SDS011;45825;45.434;9.116;2022-10-16T09:25:49;52.20;;;36.90;;
59970;SDS011;45825;45.434;9.116;2022-10-16T09:28:16;56.20;;;37.75;;
59970;SDS011;45825;45.434;9.116;2022-10-16T09:30:42;53.78;;;37.35;;
59970;SDS011;45825;45.434;9.116;2022-10-16T09:33:09;54.22;;;36.65;;
59970;SDS011;45825;45.434;9.116;2022-10-16T09:35:39;52.03;;;36.55;;
59970;SDS011;45825;45.434;9.116;2022-10-16T09:38:20;54.72;;;37.72;;
59970;SDS011;45825;45.434;9.116;2022-10-16T09:40:56;52.72;;;35.75;;
59970;SDS011;45825;45.434;9.116;2022-10-16T09:43:24;47.42;;;35.75;;
59970;SDS011;45825;45.434;9.116;2022-10-16T09:48:20;55.20;;;36.58;;
59970;SDS011;45825;45.434;9.116;2022-10-16T09:50:54;55.40;;;38.70;;
59970;SDS011;45825;45.434;9.116;2022-10-16T09:53:20;54.45;;;38.20;;
59970;SDS011;45825;45.434;9.116;2022-10-16T09:55:50;46.58;;;31.58;;
59970;SDS011;45825;45.434;9.116;2022-10-16T09:58:17;53.30;;;35.40;;
59970;SDS011;45825;45.434;9.116;2022-10-16T10:00:52;57.42;;;38.78;;
59970;SDS011;45825;45.434;9.116;2022-10-16T10:03:39;56.67;;;39.90;;
59970;SDS011;45825;45.434;9.116;2022-10-16T10:06:14;55.55;;;39.78;;
59970;SDS011;45825;45.434;9.116;2022-10-16T10:11:47;50.17;;;36.42;;
59970;SDS011;45825;45.434;9.116;2022-10-16T10:14:24;57.13;;;40.30;;
59970;SDS011;45825;45.434;9.116;2022-10-16T10:19:41;57.50;;;41.00;;
59970;SDS011;45825;45.434;9.116;2022-10-16T10:22:59;55.53;;;39.42;;
59970;SDS011;45825;45.434;9.116;2022-10-16T10:27:45;56.92;;;38.60;;
59970;SDS011;45825;45.434;9.116;2022-10-16T10:30:37;55.35;;;39.58;;
59970;SDS011;45825;45.434;9.116;2022-10-16T10:33:40;70.00;;;48.45;;
59970;SDS011;45825;45.434;9.116;2022-10-16T10:46:41;61.38;;;41.15;;
59970;SDS011;45825;45.434;9.116;2022-10-16T11:02:27;58.38;;;41.90;;
59970;SDS011;45825;45.434;9.116;2022-10-16T11:07:58;58.72;;;42.08;;
59970;SDS011;45825;45.434;9.116;2022-10-16T11:10:28;56.53;;;39.67;;
59970;SDS011;45825;45.434;9.116;2022-10-16T11:13:21;54.20;;;38.45;;
59970;SDS011;45825;45.434;9.116;2022-10-16T11:15:48;52.85;;;37.70;;
59970;SDS011;45825;45.434;9.116;2022-10-16T11:18:42;58.95;;;42.63;;
59970;SDS011;45825;45.434;9.116;2022-10-16T11:21:04;59.35;;;43.97;;
59970;SDS011;45825;45.434;9.116;2022-10-16T11:26:41;66.47;;;47.70;;
59970;SDS011;45825;45.434;9.116;2022-10-16T11:29:19;63.83;;;47.83;;
59970;SDS011;45825;45.434;9.116;2022-10-16T11:31:52;73.80;;;50.05;;
59970;SDS011;45825;45.434;9.116;2022-10-16T11:34:28;70.68;;;47.90;;
59970;SDS011;45825;45.434;9.116;2022-10-16T11:37:08;67.05;;;48.28;;
59970;SDS011;45825;45.434;9.116;2022-10-16T11:39:36;66.47;;;45.78;;
59970;SDS011;45825;45.434;9.116;2022-10-16T11:47:45;64.15;;;42.25;;
59970;SDS011;45825;45.434;9.116;2022-10-16T11:50:36;66.78;;;47.42;;
59970;SDS011;45825;45.434;9.116;2022-10-16T11:55:42;61.33;;;45.63;;
59970;SDS011;45825;45.434;9.116;2022-10-16T12:00:51;60.13;;;43.72;;
59970;SDS011;45825;45.434;9.116;2022-10-16T12:03:40;61.83;;;45.47;;
59970;SDS011;45825;45.434;9.116;2022-10-16T12:08:58;61.55;;;45.97;;
59970;SDS011;45825;45.434;9.116;2022-10-16T12:16:56;58.58;;;44.10;;
59970;SDS011;45825;45.434;9.116;2022-10-16T12:19:25;62.20;;;47.08;;
59970;SDS011;45825;45.434;9.116;2022-10-16T12:21:54;58.03;;;43.22;;
59970;SDS011;45825;45.434;9.116;2022-10-16T12:27:02;58.92;;;44.90;;
59970;SDS011;45825;45.434;9.116;2022-10-16T12:29:32;57.92;;;44.92;;
59970;SDS011;45825;45.434;9.116;2022-10-16T12:32:00;57.05;;;42.95;;
59970;SDS011;45825;45.434;9.116;2022-10-16T12:37:23;49.50;;;41.35;;
59970;SDS011;45825;45.434;9.116;2022-10-16T12:39:51;53.28;;;42.95;;
59970;SDS011;45825;45.434;9.116;2022-10-16T12:44:50;53.92;;;42.35;;
59970;SDS011;45825;45.434;9.116;2022-10-16T12:47:20;50.05;;;40.80;;
59970;SDS011;45825;45.434;9.116;2022-10-16T12:49:59;53.15;;;44.08;;
59970;SDS011;45825;45.434;9.116;2022-10-16T12:52:34;46.90;;;40.05;;
59970;SDS011;45825;45.434;9.116;2022-10-16T12:55:02;50.10;;;41.33;;
59970;SDS011;45825;45.434;9.116;2022-10-16T13:06:20;47.67;;;39.15;;
59970;SDS011;45825;45.434;9.116;2022-10-16T13:17:09;42.80;;;36.45;;
59970;SDS011;45825;45.434;9.116;2022-10-16T13:30:23;48.25;;;38.72;;
59970;SDS011;45825;45.434;9.116;2022-10-16T13:32:54;43.47;;;38.40;;
59970;SDS011;45825;45.434;9.116;2022-10-16T13:35:26;46.83;;;38.85;;
59970;SDS011;45825;45.434;9.116;2022-10-16T13:38:03;50.47;;;41.67;;
59970;SDS011;45825;45.434;9.116;2022-10-16T13:43:18;50.15;;;39.80;;
59970;SDS011;45825;45.434;9.116;2022-10-16T13:45:53;48.42;;;39.05;;
59970;SDS011;45825;45.434;9.116;2022-10-16T13:48:20;53.45;;;40.90;;
59970;SDS011;45825;45.434;9.116;2022-10-16T13:50:45;52.10;;;40.38;;
59970;SDS011;45825;45.434;9.116;2022-10-16T13:53:14;49.05;;;37.40;;
59970;SDS011;45825;45.434;9.116;2022-10-16T13:55:40;50.40;;;39.63;;
59970;SDS011;45825;45.434;9.116;2022-10-16T13:58:10;53.70;;;40.13;;
59970;SDS011;45825;45.434;9.116;2022-10-16T14:00:38;52.95;;;40.50;;
59970;SDS011;45825;45.434;9.116;2022-10-16T14:03:05;48.45;;;36.28;;
59970;SDS011;45825;45.434;9.116;2022-10-16T14:05:42;48.75;;;37.95;;
59970;SDS011;45825;45.434;9.116;2022-10-16T14:08:14;50.08;;;38.40;;
59970;SDS011;45825;45.434;9.116;2022-10-16T14:10:39;48.60;;;38.70;;
59970;SDS011;45825;45.434;9.116;2022-10-16T14:13:06;48.63;;;39.55;;
59970;SDS011;45825;45.434;9.116;2022-10-16T14:15:33;46.72;;;38.60;;
59970;SDS011;45825;45.434;9.116;2022-10-16T14:18:01;50.65;;;39.45;;
59970;SDS011;45825;45.434;9.116;2022-10-16T14:20:29;49.45;;;38.15;;
59970;SDS011;45825;45.434;9.116;2022-10-16T14:22:59;46.97;;;36.88;;
59970;SDS011;45825;45.434;9.116;2022-10-16T14:25:27;50.40;;;38.67;;
59970;SDS011;45825;45.434;9.116;2022-10-16T14:28:04;47.95;;;38.22;;
59970;SDS011;45825;45.434;9.116;2022-10-16T14:35:59;42.40;;;33.65;;
59970;SDS011;45825;45.434;9.116;2022-10-16T14:38:40;44.13;;;33.33;;
59970;SDS011;45825;45.434;9.116;2022-10-16T14:41:07;42.10;;;34.38;;
59970;SDS011;45825;45.434;9.116;2022-10-16T14:46:01;44.25;;;34.22;;
59970;SDS011;45825;45.434;9.116;2022-10-16T14:48:29;46.00;;;33.80;;
59970;SDS011;45825;45.434;9.116;2022-10-16T14:50:55;43.80;;;34.30;;
59970;SDS011;45825;45.434;9.116;2022-10-16T14:53:20;47.42;;;36.00;;
59970;SDS011;45825;45.434;9.116;2022-10-16T14:55:46;43.25;;;33.97;;
59970;SDS011;45825;45.434;9.116;2022-10-16T14:58:15;48.05;;;35.80;;
59970;SDS011;45825;45.434;9.116;2022-10-16T15:00:43;48.85;;;37.33;;
59970;SDS011;45825;45.434;9.116;2022-10-16T15:03:08;54.35;;;38.00;;
59970;SDS011;45825;45.434;9.116;2022-10-16T15:05:33;52.38;;;37.60;;
59970;SDS011;45825;45.434;9.116;2022-10-16T15:07:59;53.78;;;38.22;;
59970;SDS011;45825;45.434;9.116;2022-10-16T15:10:25;52.15;;;38.88;;
59970;SDS011;45825;45.434;9.116;2022-10-16T15:12:53;53.17;;;39.17;;
59970;SDS011;45825;45.434;9.116;2022-10-16T15:17:53;52.42;;;39.50;;
59970;SDS011;45825;45.434;9.116;2022-10-16T15:20:22;49.17;;;37.38;;
59970;SDS011;45825;45.434;9.116;2022-10-16T15:22:51;52.30;;;38.78;;
59970;SDS011;45825;45.434;9.116;2022-10-16T15:27:57;47.58;;;36.40;;
59970;SDS011;45825;45.434;9.116;2022-10-16T15:30:23;50.90;;;36.42;;
59970;SDS011;45825;45.434;9.116;2022-10-16T15:32:48;46.13;;;34.15;;
59970;SDS011;45825;45.434;9.116;2022-10-16T15:35:13;45.30;;;33.60;;
59970;SDS011;45825;45.434;9.116;2022-10-16T15:37:39;48.10;;;36.25;;
59970;SDS011;45825;45.434;9.116;2022-10-16T15:40:04;50.45;;;37.63;;
59970;SDS011;45825;45.434;9.116;2022-10-16T15:42:30;53.75;;;37.97;;
59970;SDS011;45825;45.434;9.116;2022-10-16T15:44:55;45.88;;;34.78;;
59970;SDS011;45825;45.434;9.116;2022-10-16T15:47:21;48.70;;;32.80;;
59970;SDS011;45825;45.434;9.116;2022-10-16T15:49:46;46.92;;;36.30;;
59970;SDS011;45825;45.434;9.116;2022-10-16T15:52:11;44.50;;;32.70;;
59970;SDS011;45825;45.434;9.116;2022-10-16T15:54:37;47.33;;;34.25;;
59970;SDS011;45825;45.434;9.116;2022-10-16T15:57:02;46.70;;;34.58;;
59970;SDS011;45825;45.434;9.116;2022-10-16T15:59:27;48.95;;;36.90;;
59970;SDS011;45825;45.434;9.116;2022-10-16T16:01:53;48.30;;;34.78;;
59970;SDS011;45825;45.434;9.116;2022-10-16T16:04:18;45.35;;;35.35;;
59970;SDS011;45825;45.434;9.116;2022-10-16T16:06:43;45.80;;;32.88;;
59970;SDS011;45825;45.434;9.116;2022-10-16T16:09:10;44.67;;;32.75;;
59970;SDS011;45825;45.434;9.116;2022-10-16T16:11:36;46.20;;;33.20;;
59970;SDS011;45825;45.434;9.116;2022-10-16T16:14:03;44.05;;;32.47;;
59970;SDS011;45825;45.434;9.116;2022-10-16T16:16:32;46.58;;;35.20;;
59970;SDS011;45825;45.434;9.116;2022-10-16T16:19:02;51.60;;;36.90;;
59970;SDS011;45825;45.434;9.116;2022-10-16T16:21:28;44.55;;;34.20;;
59970;SDS011;45825;45.434;9.116;2022-10-16T16:23:54;48.85;;;35.85;;
59970;SDS011;45825;45.434;9.116;2022-10-16T16:26:23;50.95;;;36.17;;
59970;SDS011;45825;45.434;9.116;2022-10-16T16:28:51;47.75;;;35.15;;
59970;SDS011;45825;45.434;9.116;2022-10-16T16:31:17;46.08;;;34.28;;
59970;SDS011;45825;45.434;9.116;2022-10-16T16:33:43;49.55;;;36.53;;
59970;SDS011;45825;45.434;9.116;2022-10-16T16:36:09;49.53;;;35.88;;
59970;SDS011;45825;45.434;9.116;2022-10-16T16:38:34;47.97;;;35.47;;
59970;SDS011;45825;45.434;9.116;2022-10-16T16:41:10;50.35;;;35.40;;
59970;SDS011;45825;45.434;9.116;2022-10-16T16:43:42;51.95;;;34.72;;
59970;SDS011;45825;45.434;9.116;2022-10-16T16:46:08;49.63;;;37.47;;
59970;SDS011;45825;45.434;9.116;2022-10-16T16:48:33;54.33;;;38.42;;
59970;SDS011;45825;45.434;9.116;2022-10-16T16:51:03;65.65;;;49.20;;
59970;SDS011;45825;45.434;9.116;2022-10-16T16:53:34;78.47;;;56.88;;
59970;SDS011;45825;45.434;9.116;2022-10-16T16:56:01;81.38;;;57.25;;
59970;SDS011;45825;45.434;9.116;2022-10-16T16:58:28;80.97;;;57.67;;
59970;SDS011;45825;45.434;9.116;2022-10-16T17:00:53;79.38;;;57.20;;
59970;SDS011;45825;45.434;9.116;2022-10-16T17:03:18;78.22;;;54.72;;